Time;durP1;ratioP1;P1;durP2;ratioP2;P2;SDS_P1;SDS_P2;PMS_P1;PMS_P2;Temp;Humidity;BMP_temperature;BMP_pressure;BME280_temperature;BME280_humidity;BME280_pressure;Samples;Min_cycle;Max_cycle;Signal;HPM_P1;HPM_P2
2023/12/15 00:00:21;;;;;;;27.92;19.63;;;;;;;;;;5054927;28;20040;-70
2023/12/15 00:03:26;;;;;;;28.95;19.08;;;;;;;;;;5054518;28;20055;-69
2023/12/15 00:06:30;;;;;;;35.00;21.05;;;;;;;;;;5054605;28;20040;-68
2023/12/15 00:09:34;;;;;;;38.22;21.23;;;;;;;;;;5054391;28;20052;-69
2023/12/15 00:12:39;;;;;;;37.05;22.70;;;;;;;;;;5054743;28;20120;-69
2023/12/15 00:15:43;;;;;;;42.05;24.35;;;;;;;;;;5054432;28;20052;-69
2023/12/15 00:18:47;;;;;;;39.42;23.00;;;;;;;;;;5054446;28;20043;-69
2023/12/15 00:21:52;;;;;;;36.13;22.52;;;;;;;;;;5054466;28;20040;-69
2023/12/15 00:24:56;;;;;;;33.45;22.52;;;;;;;;;;5054237;28;20052;-68
2023/12/15 00:28:01;;;;;;;34.38;20.10;;;;;;;;;;5054147;28;20048;-70
2023/12/15 00:31:05;;;;;;;19.63;11.30;;;;;;;;;;5054180;28;20357;-69
2023/12/15 00:34:09;;;;;;;17.85;11.57;;;;;;;;;;5053898;28;20044;-70
2023/12/15 00:37:13;;;;;;;16.05;10.15;;;;;;;;;;5053827;28;20052;-70
2023/12/15 00:40:22;;;;;;;12.35;6.63;;;12.00;99.90;;;;;;5054058;28;20508;-70
2023/12/15 00:43:27;;;;;;;13.65;8.93;;;;;;;;;;5053304;28;20393;-70
2023/12/15 00:46:31;;;;;;;19.77;10.70;;;;;;;;;;5053881;28;20037;-69
2023/12/15 00:49:35;;;;;;;14.35;9.30;;;;;;;;;;5053058;28;20051;-69
2023/12/15 00:52:40;;;;;;;13.88;6.72;;;;;;;;;;5054089;28;20421;-70
2023/12/15 00:55:44;;;;;;;5.03;2.97;;;;;;;;;;5053672;28;20052;-69
2023/12/15 00:58:48;;;;;;;5.03;3.25;;;;;;;;;;5054036;28;20032;-69
2023/12/15 01:01:53;;;;;;;6.25;2.40;;;;;;;;;;5053611;28;20037;-69
2023/12/15 01:04:57;;;;;;;5.70;1.70;;;;;;;;;;5053500;28;20033;-68
2023/12/15 01:08:01;;;;;;;2.53;1.60;;;;;;;;;;5053528;28;20052;-70
2023/12/15 01:11:06;;;;;;;4.38;1.45;;;;;;;;;;5052748;28;20041;-69
2023/12/15 01:14:10;;;;;;;3.22;1.25;;;;;;;;;;5053216;28;20485;-70
2023/12/15 01:17:14;;;;;;;3.25;1.20;;;12.60;99.90;;;;;;5053203;28;20044;-70
2023/12/15 01:20:19;;;;;;;1.88;1.13;;;;;;;;;;5053418;28;20044;-70
2023/12/15 01:23:23;;;;;;;3.17;1.02;;;;;;;;;;5053107;28;20037;-70
2023/12/15 01:26:27;;;;;;;4.40;1.08;;;;;;;;;;5053229;28;20033;-69
2023/12/15 01:29:32;;;;;;;2.33;1.05;;;;;;;;;;5053059;28;20040;-70
2023/12/15 01:32:36;;;;;;;2.03;0.90;;;;;;;;;;5052979;28;20037;-70
2023/12/15 01:35:40;;;;;;;1.00;0.80;;;;;;;;;;5052744;28;20037;-69
2023/12/15 01:38:45;;;;;;;1.30;0.93;;;12.80;99.90;;;;;;5053106;28;20045;-70
2023/12/15 01:41:49;;;;;;;1.83;0.98;;;;;;;;;;5053165;28;20665;-72
2023/12/15 01:44:54;;;;;;;3.03;0.98;;;;;;;;;;5052790;28;20025;-69
2023/12/15 01:47:59;;;;;;;2.58;0.90;;;;;;;;;;5052749;28;20028;-70
2023/12/15 01:51:03;;;;;;;2.80;1.00;;;;;;;;;;5052711;28;20048;-70
2023/12/15 01:54:07;;;;;;;1.67;0.90;;;;;;;;;;5052659;28;20037;-69
2023/12/15 01:57:12;;;;;;;1.92;0.80;;;13.00;99.80;;;;;;5052605;28;20045;-69
2023/12/15 02:00:19;;;;;;;1.10;0.80;;;;;;;;;;5051690;28;20051;-70
2023/12/15 02:03:24;;;;;;;4.60;0.80;;;;;;;;;;5051384;28;20477;-69
2023/12/15 02:06:29;;;;;;;2.10;0.88;;;;;;;;;;5051696;28;20045;-70
2023/12/15 02:09:33;;;;;;;1.42;0.80;;;;;;;;;;5051995;28;20044;-69
2023/12/15 02:12:37;;;;;;;1.20;0.80;;;;;;;;;;5052002;28;20037;-68
2023/12/15 02:15:41;;;;;;;1.80;0.90;;;;;;;;;;5052154;28;20036;-70
2023/12/15 02:18:48;;;;;;;2.10;0.80;;;;;;;;;;5052341;28;20045;-70
2023/12/15 02:21:53;;;;;;;2.65;0.80;;;;;;;;;;5052241;28;20041;-70
2023/12/15 02:24:57;;;;;;;1.33;0.80;;;;;;;;;;5052219;28;20541;-69
2023/12/15 02:28:01;;;;;;;3.00;1.00;;;;;;;;;;5052005;28;20192;-70
2023/12/15 02:31:06;;;;;;;2.00;0.90;;;;;;;;;;5052129;28;20044;-70
2023/12/15 02:34:10;;;;;;;1.23;0.57;;;;;;;;;;5051982;28;20342;-70
2023/12/15 02:37:14;;;;;;;0.90;0.65;;;;;;;;;;5051801;28;20492;-69
2023/12/15 02:40:18;;;;;;;2.15;0.70;;;;;;;;;;5051642;28;20033;-70
2023/12/15 02:43:23;;;;;;;1.92;0.95;;;;;;;;;;5051525;28;20036;-69
2023/12/15 02:46:27;;;;;;;2.03;0.70;;;;;;;;;;5051691;28;20029;-70
2023/12/15 02:49:31;;;;;;;3.88;0.80;;;;;;;;;;5050710;28;20041;-70
2023/12/15 02:52:35;;;;;;;0.85;0.70;;;;;;;;;;5051768;28;20029;-70
2023/12/15 02:55:40;;;;;;;2.78;0.80;;;;;;;;;;5051545;28;20041;-69
2023/12/15 02:58:44;;;;;;;2.95;0.90;;;;;;;;;;5051656;28;20037;-69
2023/12/15 03:01:48;;;;;;;1.63;0.90;;;;;;;;;;5051598;28;20025;-69
2023/12/15 03:04:52;;;;;;;0.47;0.47;;;;;;;;;;5051161;28;20037;-69
2023/12/15 03:07:57;;;;;;;1.38;0.80;;;;;;;;;;5050108;28;20385;-70
2023/12/15 03:11:02;;;;;;;1.13;0.50;;;;;;;;;;5050261;28;20041;-69
2023/12/15 03:14:07;;;;;;;2.63;0.80;;;;;;;;;;5051095;28;20041;-70
2023/12/15 03:17:11;;;;;;;2.88;0.82;;;;;;;;;;5049973;28;20049;-69
2023/12/15 03:20:15;;;;;;;4.13;0.98;;;;;;;;;;5051195;28;20033;-69
2023/12/15 03:23:20;;;;;;;2.13;0.85;;;;;;;;;;5051108;28;20370;-69
2023/12/15 03:26:24;;;;;;;0.85;0.70;;;;;;;;;;5051082;28;20061;-69
2023/12/15 03:29:28;;;;;;;3.85;0.90;;;;;;;;;;5051062;28;20037;-69
2023/12/15 03:32:32;;;;;;;2.08;0.85;;;;;;;;;;5038165;28;20045;-69
2023/12/15 03:35:37;;;;;;;3.55;0.93;;;;;;;;;;5050812;28;20382;-69
2023/12/15 03:38:41;;;;;;;2.70;1.20;;;;;;;;;;5050773;28;20041;-69
2023/12/15 03:41:46;;;;;;;1.88;1.00;;;;;;;;;;5051041;28;20041;-69
2023/12/15 03:44:50;;;;;;;1.83;0.98;;;;;;;;;;5050810;28;20600;-71
2023/12/15 03:47:54;;;;;;;3.05;1.13;;;;;;;;;;5050812;28;20029;-69
2023/12/15 03:50:59;;;;;;;1.90;1.40;;;13.00;97.30;;;;;;5051012;28;20041;-69
2023/12/15 03:54:03;;;;;;;3.20;1.00;;;;;;;;;;5050860;28;20040;-70
2023/12/15 03:57:08;;;;;;;4.28;1.10;;;;;;;;;;5050799;28;20053;-69
2023/12/15 04:00:13;;;;;;;4.43;1.17;;;;;;;;;;5051031;28;20045;-70
2023/12/15 04:03:17;;;;;;;3.20;1.10;;;;;;;;;;5051248;28;20037;-69
2023/12/15 04:06:21;;;;;;;1.50;1.10;;;;;;;;;;5050962;28;20370;-70
2023/12/15 04:09:28;;;;;;;2.15;1.10;;;13.30;96.50;;;;;;5050477;28;20397;-69
2023/12/15 04:12:33;;;;;;;3.53;1.30;;;;;;;;;;5050751;28;20040;-70
2023/12/15 04:15:38;;;;;;;2.92;1.00;;;;;;;;;;5050752;28;20481;-70
2023/12/15 04:18:43;;;;;;;5.68;1.50;;;;;;;;;;5050553;28;20041;-69
2023/12/15 04:21:47;;;;;;;2.88;1.02;;;;;;;;;;5050559;28;20033;-69
2023/12/15 04:24:51;;;;;;;1.63;1.10;;;;;;;;;;5050666;28;20037;-69
2023/12/15 04:27:55;;;;;;;2.00;1.10;;;;;;;;;;5051329;28;20041;-70
2023/12/15 04:30:59;;;;;;;2.72;0.93;;;;;;;;;;5050770;28;20045;-69
2023/12/15 04:34:04;;;;;;;1.90;0.95;;;;;;;;;;5050528;28;20037;-70
2023/12/15 04:37:08;;;;;;;3.83;1.00;;;;;;;;;;5050150;28;20045;-69
2023/12/15 04:40:15;;;;;;;3.25;1.15;;;;;;;;;;5050747;28;20626;-70
2023/12/15 04:43:19;;;;;;;2.50;1.13;;;;;;;;;;5050525;28;20045;-69
2023/12/15 04:46:28;;;;;;;2.80;1.10;;;13.20;96.00;;;;;;5052419;28;20033;-70
2023/12/15 04:49:33;;;;;;;2.45;1.00;;;;;;;;;;5052754;28;20526;-69
2023/12/15 04:52:37;;;;;;;2.05;1.08;;;;;;;;;;5053884;28;20045;-69
2023/12/15 04:55:41;;;;;;;1.33;0.98;;;;;;;;;;5053355;28;20033;-70
2023/12/15 04:58:46;;;;;;;3.22;0.93;;;;;;;;;;5053566;28;20048;-69
2023/12/15 05:01:50;;;;;;;3.70;1.10;;;;;;;;;;5053491;28;20029;-69
2023/12/15 05:04:54;;;;;;;1.70;1.10;;;;;;;;;;5053607;28;20041;-69
2023/12/15 05:07:59;;;;;;;5.55;1.42;;;;;;;;;;5053678;28;20382;-70
2023/12/15 05:11:03;;;;;;;2.65;1.20;;;;;;;;;;5053021;28;20040;-69
2023/12/15 05:14:07;;;;;;;2.28;1.00;;;;;;;;;;5053288;28;20631;-69
2023/12/15 05:17:12;;;;;;;2.35;0.88;;;;;;;;;;5053358;28;20040;-70
2023/12/15 05:20:16;;;;;;;2.13;0.90;;;;;;;;;;5053397;28;20041;-70
2023/12/15 05:23:20;;;;;;;2.92;0.80;;;;;;;;;;5053597;28;20370;-69
2023/12/15 05:26:26;;;;;;;1.33;0.75;;;;;;;;;;5053359;28;20048;-69
2023/12/15 05:29:31;;;;;;;2.92;1.10;;;13.10;96.10;;;;;;5053182;28;20481;-69
2023/12/15 05:32:36;;;;;;;1.58;0.93;;;;;;;;;;5053438;28;20055;-70
2023/12/15 05:35:40;;;;;;;1.42;0.85;;;;;;;;;;5053550;28;20033;-69
2023/12/15 05:38:44;;;;;;;2.13;0.90;;;;;;;;;;5052557;28;20041;-69
2023/12/15 05:41:49;;;;;;;1.73;0.70;;;;;;;;;;5052905;28;20488;-68
2023/12/15 05:44:53;;;;;;;1.02;0.77;;;;;;;;;;5052841;28;20028;-68
2023/12/15 05:47:58;;;;;;;5.13;0.95;;;;;;;;;;5052593;28;20041;-70
2023/12/15 05:51:02;;;;;;;2.15;1.00;;;13.00;95.80;;;;;;5052842;28;20041;-69
2023/12/15 05:54:07;;;;;;;0.85;0.60;;;;;;;;;;5052408;28;20059;-69
2023/12/15 05:57:11;;;;;;;1.38;0.70;;;;;;;;;;5051926;28;20037;-70
2023/12/15 06:00:16;;;;;;;3.15;0.70;;;;;;;;;;5052340;28;20041;-69
2023/12/15 06:03:20;;;;;;;1.00;0.80;;;;;;;;;;5052281;28;20044;-70
2023/12/15 06:06:24;;;;;;;0.80;0.60;;;;;;;;;;5052553;28;20037;-69
2023/12/15 06:09:29;;;;;;;1.42;0.60;;;;;;;;;;5052152;28;20033;-69
2023/12/15 06:12:33;;;;;;;1.65;0.82;;;;;;;;;;5051583;28;20655;-69
2023/12/15 06:15:38;;;;;;;2.88;1.15;;;;;;;;;;5052158;28;20033;-70
2023/12/15 06:18:42;;;;;;;0.90;0.60;;;;;;;;;;5052102;28;20181;-69
2023/12/15 06:21:47;;;;;;;3.38;1.55;;;;;;;;;;5051932;28;20453;-69
2023/12/15 06:24:54;;;;;;;3.10;1.45;;;;;;;;;;5051744;28;20029;-70
2023/12/15 06:27:58;;;;;;;2.03;0.85;;;;;;;;;;5051735;28;20037;-70
2023/12/15 06:31:02;;;;;;;1.52;0.70;;;;;;;;;;5052042;28;20378;-69
2023/12/15 06:34:07;;;;;;;2.10;0.98;;;;;;;;;;5051789;28;20037;-69
2023/12/15 06:37:11;;;;;;;1.92;0.95;;;;;;;;;;5051672;28;20045;-68
2023/12/15 06:40:16;;;;;;;1.83;1.00;;;;;;;;;;5051788;28;20033;-68
2023/12/15 06:43:20;;;;;;;1.77;1.02;;;;;;;;;;5050897;28;20036;-68
2023/12/15 06:46:25;;;;;;;2.13;0.80;;;;;;;;;;5051477;28;20473;-69
2023/12/15 06:49:32;;;;;;;0.98;0.77;;;;;;;;;;5051508;28;20041;-69
2023/12/15 06:52:36;;;;;;;2.13;1.20;;;;;;;;;;5051520;28;20473;-71
2023/12/15 06:55:41;;;;;;;2.28;0.80;;;;;;;;;;5051755;28;20374;-69
2023/12/15 06:58:45;;;;;;;1.33;0.88;;;;;;;;;;5051601;28;20041;-68
2023/12/15 07:01:49;;;;;;;2.58;1.20;;;;;;;;;;5051562;28;20037;-68
2023/12/15 07:04:54;;;;;;;2.83;1.30;;;;;;;;;;5050216;28;20172;-70
2023/12/15 07:07:59;;;;;;;2.83;0.90;;;;;;;;;;5050337;28;20037;-68
2023/12/15 07:11:04;;;;;;;1.95;1.00;;;;;;;;;;5050455;28;20041;-68
2023/12/15 07:14:08;;;;;;;1.92;1.00;;;;;;;;;;5051127;28;20048;-70
2023/12/15 07:17:12;;;;;;;1.88;0.70;;;;;;;;;;5050632;28;20049;-71
2023/12/15 07:20:17;;;;;;;2.05;1.00;;;;;;;;;;5051053;28;20358;-69
2023/12/15 07:23:21;;;;;;;2.17;1.27;;;;;;;;;;5051092;28;20062;-69
2023/12/15 07:26:26;;;;;;;3.88;1.10;;;13.30;96.60;;;;;;5051073;28;20044;-69
2023/12/15 07:29:30;;;;;;;1.42;0.80;;;;;;;;;;5050885;28;20043;-69
2023/12/15 07:32:35;;;;;;;4.65;1.05;;;;;;;;;;5050839;28;20037;-71
2023/12/15 07:35:39;;;;;;;4.03;1.10;;;;;;;;;;5050491;28;20029;-68
2023/12/15 07:38:44;;;;;;;1.85;0.80;;;;;;;;;;5051261;28;20049;-69
2023/12/15 07:41:49;;;;;;;3.03;0.70;;;;;;;;;;5051134;28;20607;-69
2023/12/15 07:44:53;;;;;;;1.58;1.00;;;;;;;;;;5051133;28;20485;-68
2023/12/15 07:47:58;;;;;;;1.80;1.05;;;;;;;;;;5050737;28;20029;-68
2023/12/15 07:51:03;;;;;;;2.17;1.00;;;;;;;;;;5038691;28;20045;-70
2023/12/15 07:54:08;;;;;;;1.45;0.80;;;;;;;;;;5050053;28;20037;-67
2023/12/15 07:57:13;;;;;;;4.22;1.10;;;;;;;;;;5050657;28;20049;-68
2023/12/15 08:00:17;;;;;;;5.38;1.50;;;;;;;;;;5050761;28;20033;-69
2023/12/15 08:03:22;;;;;;;2.67;1.15;;;;;;;;;;5050928;28;20041;-69
2023/12/15 08:06:26;;;;;;;1.67;0.80;;;13.30;95.10;;;;;;5050749;28;20560;-67
2023/12/15 08:09:31;;;;;;;2.35;0.60;;;;;;;;;;5050201;28;20056;-67
2023/12/15 08:12:35;;;;;;;6.20;0.80;;;;;;;;;;5050404;28;20041;-69
2023/12/15 08:15:39;;;;;;;6.35;0.70;;;;;;;;;;5050175;28;20611;-70
2023/12/15 08:18:44;;;;;;;2.05;0.77;;;;;;;;;;5051255;28;20045;-69
2023/12/15 08:21:48;;;;;;;1.75;0.63;;;;;;;;;;5054127;28;20033;-68
2023/12/15 08:24:52;;;;;;;1.17;0.70;;;;;;;;;;5054188;28;20373;-69
2023/12/15 08:27:57;;;;;;;3.58;1.02;;;;;;;;;;5053988;28;20041;-68
2023/12/15 08:31:02;;;;;;;4.38;0.90;;;;;;;;;;5054232;28;20033;-68
2023/12/15 08:34:06;;;;;;;1.27;0.80;;;;;;;;;;5053934;28;20041;-68
2023/12/15 08:37:10;;;;;;;2.22;0.77;;;;;;;;;;5053051;28;20374;-68
2023/12/15 08:40:15;;;;;;;3.33;1.17;;;;;;;;;;5054153;28;20037;-69
2023/12/15 08:43:19;;;;;;;1.95;0.88;;;;;;;;;;5053926;28;20033;-68
2023/12/15 08:46:24;;;;;;;7.90;1.30;;;;;;;;;;5053815;28;20033;-70
2023/12/15 08:49:28;;;;;;;4.82;1.00;;;;;;;;;;5053085;28;20033;-68
2023/12/15 08:52:32;;;;;;;2.05;1.00;;;;;;;;;;5053167;28;20037;-69
2023/12/15 08:55:36;;;;;;;4.47;0.93;;;;;;;;;;5054008;28;20074;-68
2023/12/15 08:58:41;;;;;;;3.97;1.35;;;;;;;;;;5053586;28;20037;-69
2023/12/15 09:01:45;;;;;;;3.50;1.40;;;;;;;;;;5053473;28;20037;-69
2023/12/15 09:04:50;;;;;;;3.90;1.33;;;;;;;;;;5053531;28;20037;-70
2023/12/15 09:07:54;;;;;;;3.47;1.30;;;;;;;;;;5053025;28;20041;-67
2023/12/15 09:10:59;;;;;;;2.97;1.45;;;;;;;;;;5053119;28;20033;-68
2023/12/15 09:14:04;;;;;;;5.75;1.58;;;;;;;;;;5052942;28;20040;-69
2023/12/15 09:17:13;;;;;;;2.72;1.27;;;;;;;;;;5052860;28;20049;-69
2023/12/15 09:20:17;;;;;;;10.32;1.55;;;;;;;;;;5053222;28;20041;-67
2023/12/15 09:23:21;;;;;;;4.75;1.80;;;;;;;;;;5053267;28;20092;-68
2023/12/15 09:26:28;;;;;;;3.35;1.33;;;13.60;95.40;;;;;;5051765;28;20041;-68
2023/12/15 09:29:35;;;;;;;6.18;1.77;;;;;;;;;;5052358;28;20060;-68
2023/12/15 09:32:39;;;;;;;4.80;1.48;;;;;;;;;;5052216;28;20378;-68
2023/12/15 09:35:44;;;;;;;3.20;1.85;;;;;;;;;;5052751;28;20049;-68
2023/12/15 09:38:49;;;;;;;4.50;1.63;;;;;;;;;;5052836;28;20386;-68
2023/12/15 09:41:53;;;;;;;6.85;1.80;;;;;;;;;;5052834;28;20029;-68
2023/12/15 09:44:58;;;;;;;6.60;1.45;;;;;;;;;;5052033;28;20044;-68
2023/12/15 09:48:06;;;;;;;7.38;1.80;;;15.00;94.20;;;;;;5051761;28;20037;-70
2023/12/15 09:51:24;;;;;;;6.75;1.80;;;14.20;93.10;;;;;;5052797;28;20044;-68
2023/12/15 09:54:29;;;;;;;5.03;1.80;;;;;;;;;;5052352;28;20531;-67
2023/12/15 09:57:34;;;;;;;8.52;2.20;;;13.50;93.30;;;;;;5052599;28;20041;-68
2023/12/15 10:00:38;;;;;;;4.38;1.85;;;14.40;93.90;;;;;;5052767;28;20048;-68
2023/12/15 10:03:43;;;;;;;5.53;1.52;;;;;;;;;;5052119;28;20044;-69
2023/12/15 10:06:48;;;;;;;6.50;1.40;;;;;;;;;;5052437;28;20041;-68
2023/12/15 10:09:52;;;;;;;5.47;1.60;;;;;;;;;;5012301;28;20041;-68
2023/12/15 10:12:57;;;;;;;3.78;1.50;;;;;;;;;;5012358;28;20382;-68
2023/12/15 10:16:01;;;;;;;7.28;1.80;;;;;;;;;;5012666;28;20038;-68
2023/12/15 10:19:06;;;;;;;7.45;1.70;;;15.70;91.00;;;;;;5012376;28;20041;-68
2023/12/15 10:22:11;;;;;;;7.40;1.50;;;;;;;;;;5011688;28;20044;-68
2023/12/15 10:25:16;;;;;;;11.23;2.83;;;15.80;90.70;;;;;;5012317;28;20041;-68
2023/12/15 10:28:21;;;;;;;4.82;1.63;;;;;;;;;;5012060;28;20045;-68
2023/12/15 10:31:28;;;;;;;4.72;1.00;;;15.80;88.90;;;;;;5011408;28;20053;-68
2023/12/15 10:34:33;;;;;;;4.15;1.70;;;;;;;;;;5012249;28;20044;-68
2023/12/15 10:37:37;;;;;;;6.82;1.83;;;;;;;;;;5010967;28;20383;-69
2023/12/15 10:40:42;;;;;;;6.78;1.70;;;16.20;90.60;;;;;;5012045;28;20033;-68
2023/12/15 10:43:50;;;;;;;6.35;1.58;;;;;;;;;;5011612;28;20049;-68
2023/12/15 10:46:54;;;;;;;3.95;1.20;;;;;;;;;;5012066;28;20041;-68
2023/12/15 10:49:59;;;;;;;7.20;1.58;;;;;;;;;;5012049;28;20419;-69
2023/12/15 10:53:03;;;;;;;2.53;1.48;;;;;;;;;;5011806;28;20046;-68
2023/12/15 10:56:08;;;;;;;5.05;1.67;;;;;;;;;;5011463;28;20030;-67
2023/12/15 10:59:12;;;;;;;6.28;2.00;;;;;;;;;;5011989;28;20046;-68
2023/12/15 11:02:21;;;;;;;7.88;2.03;;;14.30;86.50;;;;;;5011297;28;20034;-70
2023/12/15 11:05:26;;;;;;;8.85;1.70;;;;;;;;;;5011826;28;20057;-67
2023/12/15 11:08:30;;;;;;;4.40;1.30;;;;;;;;;;5032351;28;20379;-67
2023/12/15 11:11:35;;;;;;;3.92;1.73;;;;;;;;;;5049427;28;20481;-68
2023/12/15 11:14:41;;;;;;;7.18;1.60;;;;;;;;;;5050959;28;20413;-67
2023/12/15 11:17:49;;;;;;;7.90;1.83;;;;;;;;;;5047669;28;20049;-67
2023/12/15 11:20:56;;;;;;;5.70;1.67;;;15.10;84.60;;;;;;5049798;28;20041;-68
2023/12/15 11:24:03;;;;;;;8.27;2.38;;;;;;;;;;5050482;28;20044;-66
2023/12/15 11:27:08;;;;;;;5.15;1.40;;;;;;;;;;5051025;28;20036;-68
2023/12/15 11:30:31;;;;;;;11.00;1.95;;;15.80;86.60;;;;;;5050811;28;20037;-68
2023/12/15 11:33:40;;;;;;;4.55;1.65;;;;;;;;;;5050686;28;20043;-66
2023/12/15 11:36:45;;;;;;;3.13;1.20;;;;;;;;;;5050759;28;20072;-67
2023/12/15 11:39:50;;;;;;;7.05;1.70;;;;;;;;;;5050946;28;20378;-68
2023/12/15 11:42:56;;;;;;;7.25;1.95;;;;;;;;;;5049783;28;20178;-68
2023/12/15 11:46:01;;;;;;;4.45;1.95;;;;;;;;;;5050594;28;20037;-67
2023/12/15 11:49:05;;;;;;;8.13;1.85;;;;;;;;;;5050994;28;20041;-67
2023/12/15 11:52:10;;;;;;;9.75;2.15;;;15.80;89.00;;;;;;5049693;28;20029;-66
2023/12/15 11:55:17;;;;;;;3.05;1.70;;;14.60;85.90;;;;;;5054243;28;20043;-67
2023/12/15 11:58:22;;;;;;;4.55;1.83;;;;;;;;;;5054696;28;20059;-67
2023/12/15 12:01:32;;;;;;;5.63;1.73;;;;;;;;;;5054588;28;20041;-68
2023/12/15 12:04:36;;;;;;;3.35;1.60;;;;;;;;;;5054461;28;20041;-67
2023/12/15 12:07:42;;;;;;;4.93;1.55;;;;;;;;;;5053444;28;20385;-67
2023/12/15 12:10:46;;;;;;;5.68;1.52;;;;;;;;;;5054268;28;20040;-66
2023/12/15 12:13:57;;;;;;;5.13;1.42;;;;;;;;;;5054592;28;20569;-66
2023/12/15 12:17:02;;;;;;;8.30;2.10;;;16.20;84.40;;;;;;5054204;28;20037;-66
2023/12/15 12:20:09;;;;;;;2.50;1.48;;;;;;;;;;5054353;28;20056;-67
2023/12/15 12:23:14;;;;;;;3.83;1.35;;;;;;;;;;5054279;28;20037;-65
2023/12/15 12:26:18;;;;;;;7.20;1.70;;;;;;;;;;5053413;28;20045;-67
2023/12/15 12:29:22;;;;;;;3.97;1.45;;;;;;;;;;5053981;28;20041;-65
2023/12/15 12:32:27;;;;;;;4.35;1.40;;;;;;;;;;5053925;28;20041;-68
2023/12/15 12:35:31;;;;;;;4.25;1.40;;;;;;;;;;5053278;28;20187;-65
2023/12/15 12:38:35;;;;;;;3.83;1.40;;;;;;;;;;5053866;28;20362;-67
2023/12/15 12:41:40;;;;;;;4.78;1.50;;;;;;;;;;5053375;28;20037;-66
2023/12/15 12:44:44;;;;;;;2.25;1.20;;;;;;;;;;5053874;28;20037;-67
2023/12/15 12:47:49;;;;;;;5.25;1.90;;;;;;;;;;5053616;28;20469;-66
2023/12/15 12:50:53;;;;;;;8.90;1.70;;;;;;;;;;5053847;28;20040;-66
2023/12/15 12:53:58;;;;;;;5.85;1.55;;;;;;;;;;5053608;28;20041;-67
2023/12/15 12:57:03;;;;;;;3.15;1.60;;;;;;;;;;5053823;28;20037;-66
2023/12/15 13:00:07;;;;;;;2.90;1.50;;;;;;;;;;5053793;28;20044;-67
2023/12/15 13:03:11;;;;;;;5.38;1.88;;;;;;;;;;5053244;28;20041;-67
2023/12/15 13:06:19;;;;;;;4.00;1.45;;;;;;;;;;5052374;28;20066;-66
2023/12/15 13:09:23;;;;;;;8.30;2.33;;;;;;;;;;5053212;28;20481;-67
2023/12/15 13:12:28;;;;;;;11.70;1.60;;;;;;;;;;5053297;28;20045;-66
2023/12/15 13:15:32;;;;;;;2.45;1.45;;;;;;;;;;5053571;28;20041;-67
2023/12/15 13:18:36;;;;;;;4.40;1.30;;;;;;;;;;5053254;28;20053;-66
2023/12/15 13:21:40;;;;;;;5.20;1.85;;;;;;;;;;5053115;28;20516;-67
2023/12/15 13:24:45;;;;;;;7.53;2.45;;;;;;;;;;5053224;28;20036;-66
2023/12/15 13:27:49;;;;;;;5.90;1.50;;;;;;;;;;5053093;28;20049;-67
2023/12/15 13:30:56;;;;;;;7.53;2.08;;;;;;;;;;5053095;28;20040;-66
2023/12/15 13:34:00;;;;;;;5.63;1.60;;;;;;;;;;5053199;28;20465;-66
2023/12/15 13:37:05;;;;;;;3.22;1.60;;;;;;;;;;5053332;28;20155;-68
2023/12/15 13:40:11;;;;;;;3.88;1.75;;;;;;;;;;5052995;28;20041;-66
2023/12/15 13:43:15;;;;;;;8.52;1.55;;;;;;;;;;5052753;28;20603;-67
2023/12/15 13:46:21;;;;;;;8.30;1.83;;;;;;;;;;5052699;28;20060;-66
2023/12/15 13:49:25;;;;;;;11.65;1.75;;;;;;;;;;5053211;28;20045;-67
2023/12/15 13:52:34;;;;;;;4.95;1.80;;;;;;;;;;5053088;28;20041;-67
2023/12/15 13:55:38;;;;;;;8.13;2.40;;;;;;;;;;5052801;28;20040;-67
2023/12/15 13:58:43;;;;;;;4.55;1.67;;;;;;;;;;5052565;28;20045;-66
2023/12/15 14:01:47;;;;;;;8.40;1.80;;;;;;;;;;5052827;28;20045;-68
2023/12/15 14:04:52;;;;;;;10.02;1.75;;;;;;;;;;5052507;28;20041;-67
2023/12/15 14:07:56;;;;;;;3.83;1.58;;;;;;;;;;5052147;28;20056;-67
2023/12/15 14:11:01;;;;;;;9.35;1.85;;;;;;;;;;5052535;28;20485;-68
2023/12/15 14:14:05;;;;;;;8.25;3.30;;;;;;;;;;5052297;28;20037;-69
2023/12/15 14:17:10;;;;;;;3.67;1.58;;;;;;;;;;5051650;28;20037;-68
2023/12/15 14:20:15;;;;;;;6.05;2.63;;;;;;;;;;5051933;28;20036;-68
2023/12/15 14:23:19;;;;;;;8.82;3.13;;;;;;;;;;5052003;28;20370;-68
2023/12/15 14:26:23;;;;;;;7.32;1.52;;;;;;;;;;5051908;28;20045;-67
2023/12/15 14:29:27;;;;;;;9.35;2.20;;;;;;;;;;5050870;28;20045;-69
2023/12/15 14:32:32;;;;;;;5.57;1.80;;;;;;;;;;5051284;28;20036;-69
2023/12/15 14:35:37;;;;;;;7.05;1.42;;;;;;;;;;5052042;28;20049;-69
2023/12/15 14:38:42;;;;;;;6.85;1.58;;;;;;;;;;5051582;28;20040;-68
2023/12/15 14:41:46;;;;;;;4.07;1.50;;;;;;;;;;5051867;28;20037;-70
2023/12/15 14:44:51;;;;;;;6.32;2.10;;;;;;;;;;5051869;28;20045;-68
2023/12/15 14:47:56;;;;;;;5.32;2.15;;;;;;;;;;5051451;28;20037;-69
2023/12/15 14:51:00;;;;;;;3.53;1.60;;;;;;;;;;5051521;28;20029;-68
2023/12/15 14:54:05;;;;;;;4.93;1.70;;;;;;;;;;5050691;28;20041;-68
2023/12/15 14:57:10;;;;;;;7.95;2.60;;;;;;;;;;5051428;28;20041;-68
2023/12/15 15:00:14;;;;;;;5.63;2.08;;;;;;;;;;5051269;28;20045;-69
2023/12/15 15:03:18;;;;;;;7.28;1.90;;;;;;;;;;5051306;28;20041;-68
2023/12/15 15:06:23;;;;;;;8.90;3.08;;;;;;;;;;5051231;28;20033;-68
2023/12/15 15:09:27;;;;;;;10.10;1.80;;;;;;;;;;5050668;28;20053;-69
2023/12/15 15:12:32;;;;;;;10.85;2.88;;;;;;;;;;5050280;28;20044;-68
2023/12/15 15:15:36;;;;;;;7.18;1.92;;;;;;;;;;5050869;28;20057;-68
2023/12/15 15:18:40;;;;;;;8.68;1.55;;;;;;;;;;5027086;28;20049;-68
2023/12/15 15:21:45;;;;;;;8.30;2.10;;;;;;;;;;5051095;28;20040;-68
2023/12/15 15:24:50;;;;;;;6.15;1.88;;;;;;;;;;5050197;28;20045;-69
2023/12/15 15:27:54;;;;;;;12.85;2.83;;;;;;;;;;5050822;28;20029;-69
2023/12/15 15:30:58;;;;;;;8.60;2.00;;;;;;;;;;5049959;28;20044;-68
2023/12/15 15:34:02;;;;;;;14.55;3.70;;;;;;;;;;5050035;28;20037;-69
2023/12/15 15:37:07;;;;;;;13.15;6.18;;;;;;;;;;5050833;28;20040;-67
2023/12/15 15:40:11;;;;;;;10.52;2.40;;;13.40;80.30;;;;;;5050572;28;20393;-68
2023/12/15 15:43:15;;;;;;;4.18;1.70;;;;;;;;;;5049816;28;20389;-68
2023/12/15 15:46:20;;;;;;;5.95;1.73;;;14.20;80.20;;;;;;5050879;28;20041;-69
2023/12/15 15:49:26;;;;;;;6.13;2.50;;;;;;;;;;5050721;28;20044;-68
2023/12/15 15:52:30;;;;;;;42.90;10.98;;;;;;;;;;5049862;28;20041;-67
2023/12/15 15:55:35;;;;;;;14.70;3.22;;;;;;;;;;5050385;28;20044;-67
2023/12/15 15:58:39;;;;;;;18.80;4.15;;;;;;;;;;5050593;28;20382;-68
2023/12/15 16:01:44;;;;;;;18.17;6.95;;;;;;;;;;5050171;28;20037;-66
2023/12/15 16:04:48;;;;;;;16.15;4.90;;;;;;;;;;5049507;28;20440;-66
2023/12/15 16:07:52;;;;;;;11.30;6.85;;;;;;;;;;5050025;28;20041;-66
2023/12/15 16:10:57;;;;;;;8.75;5.32;;;;;;;;;;5050449;28;20049;-67
2023/12/15 16:14:01;;;;;;;9.70;4.72;;;;;;;;;;5050496;28;20041;-67
2023/12/15 16:17:06;;;;;;;12.90;5.72;;;;;;;;;;5050070;28;20489;-67
2023/12/15 16:20:11;;;;;;;8.30;4.20;;;;;;;;;;5049924;28;20543;-66
2023/12/15 16:23:16;;;;;;;9.15;3.70;;;;;;;;;;5050252;28;20045;-67
2023/12/15 16:26:20;;;;;;;18.00;4.72;;;;;;;;;;5050320;28;20037;-68
2023/12/15 16:29:25;;;;;;;12.73;4.25;;;;;;;;;;5049404;28;20037;-67
2023/12/15 16:32:30;;;;;;;12.90;3.90;;;;;;;;;;5049906;28;20037;-67
2023/12/15 16:35:34;;;;;;;12.93;2.95;;;;;;;;;;5050251;28;20041;-67
2023/12/15 16:38:39;;;;;;;11.38;3.10;;;;;;;;;;5049918;28;20049;-68
2023/12/15 16:41:43;;;;;;;7.00;2.78;;;;;;;;;;5053543;28;20037;-68
2023/12/15 16:44:49;;;;;;;8.93;2.97;;;14.40;83.60;;;;;;5053632;28;20040;-69
2023/12/15 16:47:54;;;;;;;8.07;3.40;;;;;;;;;;5053511;28;20504;-68
2023/12/15 16:50:58;;;;;;;6.35;2.78;;;;;;;;;;5052667;28;20048;-66
2023/12/15 16:54:03;;;;;;;9.23;2.40;;;;;;;;;;5053625;28;20037;-66
2023/12/15 16:57:07;;;;;;;6.15;3.05;;;;;;;;;;5053601;28;20037;-67
2023/12/15 17:00:11;;;;;;;6.47;2.38;;;;;;;;;;5053401;28;20049;-67
2023/12/15 17:03:16;;;;;;;5.90;1.90;;;;;;;;;;5053783;28;20383;-69
2023/12/15 17:06:20;;;;;;;6.40;2.10;;;;;;;;;;5053290;28;20040;-68
2023/12/15 17:09:25;;;;;;;10.35;2.58;;;;;;;;;;5053056;28;20056;-67
2023/12/15 17:12:30;;;;;;;4.78;2.42;;;;;;;;;;5052245;28;20046;-66
2023/12/15 17:15:34;;;;;;;8.70;3.35;;;;;;;;;;5052947;28;20041;-67
2023/12/15 17:18:38;;;;;;;4.95;2.72;;;;;;;;;;5052130;28;20044;-67
2023/12/15 17:21:43;;;;;;;7.38;2.40;;;13.80;84.60;;;;;;5052147;28;20029;-67
2023/12/15 17:24:48;;;;;;;9.50;3.58;;;;;;;;;;5053055;28;20047;-68
2023/12/15 17:27:53;;;;;;;6.10;3.10;;;;;;;;;;5052102;28;20041;-68
2023/12/15 17:30:57;;;;;;;9.38;4.00;;;;;;;;;;5053145;28;20037;-67
2023/12/15 17:34:01;;;;;;;5.13;2.58;;;;;;;;;;5052619;28;20041;-68
2023/12/15 17:37:07;;;;;;;14.20;2.70;;;;;;;;;;5052712;28;20366;-67
2023/12/15 17:40:12;;;;;;;14.65;5.32;;;;;;;;;;5052469;28;20044;-67
2023/12/15 17:43:17;;;;;;;4.43;1.88;;;;;;;;;;5052625;28;20044;-67
2023/12/15 17:46:23;;;;;;;9.43;2.97;;;13.50;81.80;;;;;;5052615;28;20049;-68
2023/12/15 17:49:27;;;;;;;8.40;3.50;;;;;;;;;;5052284;28;20039;-68
2023/12/15 17:52:32;;;;;;;7.43;2.22;;;;;;;;;;5051604;28;20037;-67
2023/12/15 17:55:36;;;;;;;11.25;4.03;;;;;;;;;;5052399;28;20041;-67
2023/12/15 17:58:41;;;;;;;7.53;2.45;;;;;;;;;;5052147;28;20041;-66
2023/12/15 18:01:45;;;;;;;9.80;3.80;;;;;;;;;;5052107;28;20033;-67
2023/12/15 18:04:50;;;;;;;12.35;3.47;;;;;;;;;;5052296;28;20033;-67
2023/12/15 18:08:03;;;;;;;10.80;4.20;;;;;;;;;;5051895;28;20052;-67